Demopolis, Alabama
Current Conditions -  °F | °C
As of 10:35 PM on Saturday 22 Nov 2014 (Local Time) from KDYA Reporting Station
Overcast Overcast  
Wind Chill: 60°   Ceiling: 1200
Heat Index: 60°   Visibility: 10mi
Dew Point: 54°   Wind: 8mph
Humidity: 83%   Direction: 90°E
Pressure: 30.04"   Gusts: NA
Location:  32.5°N, 87.84°W
Report Text: KDYA 230435Z AUTO 09007KT 10SM OVC012 15/12 A3004 RMK AO2 T01530124
Loading
Personal Weather Stations






























Interactive Weather Map New forecast layout! Learn more

10-Day Weather Forecast

Advertisements
Track Severe Weather on mobile